sensor_id;sensor_type;location;lat;lon;timestamp;pressure;altitude;pressure_sealevel;temperature;humidity
59170;BME280;52474;52.236;5.114;2023-04-01T00:00:50;99085.63;;;8.95;100.00
59170;BME280;52474;52.236;5.114;2023-04-01T00:03:16;99075.75;;;8.89;100.00
59170;BME280;52474;52.236;5.114;2023-04-01T00:05:42;99095.53;;;8.93;100.00
59170;BME280;52474;52.236;5.114;2023-04-01T00:08:08;99043.53;;;8.60;100.00
59170;BME280;52474;52.236;5.114;2023-04-01T00:10:33;99087.28;;;8.88;100.00
59170;BME280;52474;52.236;5.114;2023-04-01T00:13:00;99080.69;;;8.84;100.00
59170;BME280;52474;52.236;5.114;2023-04-01T00:15:25;99103.78;;;8.90;100.00
59170;BME280;52474;52.236;5.114;2023-04-01T00:17:51;99096.88;;;8.89;100.00
59170;BME280;52474;52.236;5.114;2023-04-01T00:20:17;99044.81;;;8.56;100.00
59170;BME280;52474;52.236;5.114;2023-04-01T00:22:42;99102.97;;;8.89;100.00
59170;BME280;52474;52.236;5.114;2023-04-01T00:25:09;99101.97;;;8.90;100.00
59170;BME280;52474;52.236;5.114;2023-04-01T00:27:34;99054.06;;;8.60;100.00
59170;BME280;52474;52.236;5.114;2023-04-01T00:30:00;99103.78;;;8.90;100.00
59170;BME280;52474;52.236;5.114;2023-04-01T00:32:27;99093.38;;;8.88;100.00
59170;BME280;52474;52.236;5.114;2023-04-01T00:34:52;99105.28;;;8.84;100.00
59170;BME280;52474;52.236;5.114;2023-04-01T00:37:19;99103.94;;;8.80;100.00
59170;BME280;52474;52.236;5.114;2023-04-01T00:39:46;99099.31;;;8.82;100.00
59170;BME280;52474;52.236;5.114;2023-04-01T00:42:12;99098.66;;;8.80;100.00
59170;BME280;52474;52.236;5.114;2023-04-01T00:44:38;99107.72;;;8.86;100.00
59170;BME280;52474;52.236;5.114;2023-04-01T00:47:04;99094.38;;;8.79;100.00
59170;BME280;52474;52.236;5.114;2023-04-01T00:49:33;99067.94;;;8.63;100.00
59170;BME280;52474;52.236;5.114;2023-04-01T00:52:03;99103.44;;;8.76;100.00
59170;BME280;52474;52.236;5.114;2023-04-01T00:54:30;99111.03;;;8.79;100.00
59170;BME280;52474;52.236;5.114;2023-04-01T00:57:00;99113.16;;;8.76;100.00
59170;BME280;52474;52.236;5.114;2023-04-01T00:59:31;99068.06;;;8.45;100.00
59170;BME280;52474;52.236;5.114;2023-04-01T01:02:00;99111.50;;;8.67;100.00
59170;BME280;52474;52.236;5.114;2023-04-01T01:04:29;99080.94;;;8.48;100.00
59170;BME280;52474;52.236;5.114;2023-04-01T01:12:30;99112.94;;;8.61;100.00
59170;BME280;52474;52.236;5.114;2023-04-01T01:15:16;99122.53;;;8.62;100.00
59170;BME280;52474;52.236;5.114;2023-04-01T01:18:05;99120.72;;;8.63;100.00
59170;BME280;52474;52.236;5.114;2023-04-01T01:32:03;99094.69;;;8.33;100.00
59170;BME280;52474;52.236;5.114;2023-04-01T01:34:51;99119.16;;;8.44;100.00
59170;BME280;52474;52.236;5.114;2023-04-01T01:37:23;99129.09;;;8.50;100.00
59170;BME280;52474;52.236;5.114;2023-04-01T01:39:55;99132.34;;;8.44;100.00
59170;BME280;52474;52.236;5.114;2023-04-01T01:42:25;99086.56;;;8.18;100.00
59170;BME280;52474;52.236;5.114;2023-04-01T01:44:53;99109.72;;;8.33;100.00
59170;BME280;52474;52.236;5.114;2023-04-01T01:47:21;99090.19;;;8.17;100.00
59170;BME280;52474;52.236;5.114;2023-04-01T01:49:47;99118.63;;;8.32;100.00
59170;BME280;52474;52.236;5.114;2023-04-01T01:52:16;99136.31;;;8.40;100.00
59170;BME280;52474;52.236;5.114;2023-04-01T01:54:50;99124.72;;;8.32;100.00
59170;BME280;52474;52.236;5.114;2023-04-01T01:57:17;99135.00;;;8.44;100.00
59170;BME280;52474;52.236;5.114;2023-04-01T01:59:49;99064.09;;;7.98;100.00
59170;BME280;52474;52.236;5.114;2023-04-01T02:02:23;99127.53;;;8.39;100.00
59170;BME280;52474;52.236;5.114;2023-04-01T02:04:52;99098.94;;;8.18;100.00
59170;BME280;52474;52.236;5.114;2023-04-01T02:07:23;99081.53;;;7.99;100.00
59170;BME280;52474;52.236;5.114;2023-04-01T02:09:51;99109.50;;;8.26;100.00
59170;BME280;52474;52.236;5.114;2023-04-01T02:12:19;99144.41;;;8.46;100.00
59170;BME280;52474;52.236;5.114;2023-04-01T02:15:00;99147.50;;;8.42;100.00
59170;BME280;52474;52.236;5.114;2023-04-01T02:17:32;99150.34;;;8.48;100.00
59170;BME280;52474;52.236;5.114;2023-04-01T02:20:22;99154.66;;;8.49;100.00
59170;BME280;52474;52.236;5.114;2023-04-01T02:22:50;99155.47;;;8.50;100.00
59170;BME280;52474;52.236;5.114;2023-04-01T02:25:31;99146.41;;;8.44;100.00
59170;BME280;52474;52.236;5.114;2023-04-01T02:27:59;99166.53;;;8.53;100.00
59170;BME280;52474;52.236;5.114;2023-04-01T02:30:27;99165.22;;;8.49;100.00
59170;BME280;52474;52.236;5.114;2023-04-01T02:32:56;99128.50;;;8.30;100.00
59170;BME280;52474;52.236;5.114;2023-04-01T02:35:23;99138.03;;;8.31;100.00
59170;BME280;52474;52.236;5.114;2023-04-01T02:37:50;99016.75;;;7.54;100.00
59170;BME280;52474;52.236;5.114;2023-04-01T02:40:18;99178.06;;;8.52;100.00
59170;BME280;52474;52.236;5.114;2023-04-01T02:42:44;99125.97;;;8.20;100.00
59170;BME280;52474;52.236;5.114;2023-04-01T02:45:11;99181.53;;;8.53;100.00
59170;BME280;52474;52.236;5.114;2023-04-01T02:47:37;99131.25;;;8.20;100.00
59170;BME280;52474;52.236;5.114;2023-04-01T02:50:04;99191.09;;;8.54;100.00
59170;BME280;52474;52.236;5.114;2023-04-01T02:52:32;99156.38;;;8.32;100.00
59170;BME280;52474;52.236;5.114;2023-04-01T02:55:00;99202.31;;;8.56;100.00
59170;BME280;52474;52.236;5.114;2023-04-01T02:57:26;99196.69;;;8.51;100.00
59170;BME280;52474;52.236;5.114;2023-04-01T02:59:51;99156.31;;;8.24;100.00
59170;BME280;52474;52.236;5.114;2023-04-01T03:02:17;99159.63;;;8.26;100.00
59170;BME280;52474;52.236;5.114;2023-04-01T03:04:43;99217.19;;;8.57;100.00
59170;BME280;52474;52.236;5.114;2023-04-01T03:07:09;99208.06;;;8.51;100.00
59170;BME280;52474;52.236;5.114;2023-04-01T03:09:38;99158.94;;;8.24;100.00
59170;BME280;52474;52.236;5.114;2023-04-01T03:12:04;99218.00;;;8.57;100.00
59170;BME280;52474;52.236;5.114;2023-04-01T03:14:35;99224.78;;;8.60;100.00
59170;BME280;52474;52.236;5.114;2023-04-01T03:17:01;99223.78;;;8.61;100.00
59170;BME280;52474;52.236;5.114;2023-04-01T03:19:27;99236.81;;;8.63;100.00
59170;BME280;52474;52.236;5.114;2023-04-01T03:21:53;99231.88;;;8.59;100.00
59170;BME280;52474;52.236;5.114;2023-04-01T03:24:19;99239.97;;;8.66;100.00
59170;BME280;52474;52.236;5.114;2023-04-01T03:26:46;99235.53;;;8.67;100.00
59170;BME280;52474;52.236;5.114;2023-04-01T03:29:12;99238.81;;;8.69;100.00
59170;BME280;52474;52.236;5.114;2023-04-01T03:31:43;99244.09;;;8.69;100.00
59170;BME280;52474;52.236;5.114;2023-04-01T03:34:09;99209.53;;;8.46;100.00
59170;BME280;52474;52.236;5.114;2023-04-01T03:36:35;99250.41;;;8.76;100.00
59170;BME280;52474;52.236;5.114;2023-04-01T03:39:00;99241.47;;;8.69;100.00
59170;BME280;52474;52.236;5.114;2023-04-01T03:41:36;99140.88;;;8.03;100.00
59170;BME280;52474;52.236;5.114;2023-04-01T03:44:03;99258.50;;;8.74;100.00
59170;BME280;52474;52.236;5.114;2023-04-01T03:46:28;99225.59;;;8.60;100.00
59170;BME280;52474;52.236;5.114;2023-04-01T03:48:54;99264.31;;;8.86;100.00
59170;BME280;52474;52.236;5.114;2023-04-01T03:51:20;99265.66;;;8.90;100.00
59170;BME280;52474;52.236;5.114;2023-04-01T03:53:46;99247.25;;;8.72;100.00
59170;BME280;52474;52.236;5.114;2023-04-01T03:56:11;99282.97;;;8.93;100.00
59170;BME280;52474;52.236;5.114;2023-04-01T03:58:37;99296.50;;;8.90;100.00
59170;BME280;52474;52.236;5.114;2023-04-01T04:01:20;99287.75;;;8.89;100.00
59170;BME280;52474;52.236;5.114;2023-04-01T04:03:49;99255.97;;;8.65;100.00
59170;BME280;52474;52.236;5.114;2023-04-01T04:06:16;99254.94;;;8.57;100.00
59170;BME280;52474;52.236;5.114;2023-04-01T04:08:43;99266.53;;;8.65;100.00
59170;BME280;52474;52.236;5.114;2023-04-01T04:11:10;99301.56;;;8.83;100.00
59170;BME280;52474;52.236;5.114;2023-04-01T04:13:40;99276.25;;;8.64;100.00
59170;BME280;52474;52.236;5.114;2023-04-01T04:16:06;99318.63;;;8.89;100.00
59170;BME280;52474;52.236;5.114;2023-04-01T04:18:34;99313.97;;;8.82;100.00
59170;BME280;52474;52.236;5.114;2023-04-01T04:21:00;99302.69;;;8.72;100.00
59170;BME280;52474;52.236;5.114;2023-04-01T04:23:25;99325.69;;;8.88;100.00
59170;BME280;52474;52.236;5.114;2023-04-01T04:25:57;99302.53;;;8.74;100.00
59170;BME280;52474;52.236;5.114;2023-04-01T04:28:23;99304.81;;;8.69;100.00
59170;BME280;52474;52.236;5.114;2023-04-01T04:30:51;99339.41;;;8.92;100.00
59170;BME280;52474;52.236;5.114;2023-04-01T04:33:16;99346.19;;;8.94;100.00
59170;BME280;52474;52.236;5.114;2023-04-01T04:35:42;99325.50;;;8.81;100.00
59170;BME280;52474;52.236;5.114;2023-04-01T04:38:09;99350.47;;;8.95;100.00
59170;BME280;52474;52.236;5.114;2023-04-01T04:40:36;99352.78;;;8.90;100.00
59170;BME280;52474;52.236;5.114;2023-04-01T04:43:03;99350.31;;;8.89;100.00
59170;BME280;52474;52.236;5.114;2023-04-01T04:45:29;99363.41;;;8.98;100.00
59170;BME280;52474;52.236;5.114;2023-04-01T04:47:56;99342.03;;;8.84;100.00
59170;BME280;52474;52.236;5.114;2023-04-01T04:50:23;99325.44;;;8.73;100.00
59170;BME280;52474;52.236;5.114;2023-04-01T04:52:49;99378.38;;;8.98;100.00
59170;BME280;52474;52.236;5.114;2023-04-01T04:55:16;99380.06;;;8.99;100.00
59170;BME280;52474;52.236;5.114;2023-04-01T04:57:45;99383.53;;;8.99;100.00
59170;BME280;52474;52.236;5.114;2023-04-01T05:00:11;99388.81;;;8.99;100.00
59170;BME280;52474;52.236;5.114;2023-04-01T05:02:46;99390.44;;;9.00;100.00
59170;BME280;52474;52.236;5.114;2023-04-01T05:05:12;99343.56;;;8.68;100.00
59170;BME280;52474;52.236;5.114;2023-04-01T05:07:38;99402.00;;;8.99;100.00
59170;BME280;52474;52.236;5.114;2023-04-01T05:10:04;99387.25;;;8.89;100.00
59170;BME280;52474;52.236;5.114;2023-04-01T05:12:30;99409.09;;;8.99;100.00
59170;BME280;52474;52.236;5.114;2023-04-01T05:15:01;99410.25;;;8.96;100.00
59170;BME280;52474;52.236;5.114;2023-04-01T05:17:27;99420.63;;;8.98;100.00
59170;BME280;52474;52.236;5.114;2023-04-01T05:19:53;99418.00;;;8.98;100.00
59170;BME280;52474;52.236;5.114;2023-04-01T05:22:19;99412.53;;;8.91;100.00
59170;BME280;52474;52.236;5.114;2023-04-01T05:24:45;99425.78;;;8.99;100.00
59170;BME280;52474;52.236;5.114;2023-04-01T05:27:12;99413.00;;;8.87;100.00
59170;BME280;52474;52.236;5.114;2023-04-01T05:29:39;99384.50;;;8.72;100.00
59170;BME280;52474;52.236;5.114;2023-04-01T05:32:08;99417.28;;;8.88;100.00
59170;BME280;52474;52.236;5.114;2023-04-01T05:34:34;99394.06;;;8.73;100.00
59170;BME280;52474;52.236;5.114;2023-04-01T05:37:00;99439.97;;;8.98;100.00
59170;BME280;52474;52.236;5.114;2023-04-01T05:39:26;99446.22;;;8.97;100.00
59170;BME280;52474;52.236;5.114;2023-04-01T05:41:53;99454.97;;;8.98;100.00
59170;BME280;52474;52.236;5.114;2023-04-01T05:44:18;99461.56;;;8.94;100.00
59170;BME280;52474;52.236;5.114;2023-04-01T05:47:19;99456.28;;;8.94;100.00
59170;BME280;52474;52.236;5.114;2023-04-01T05:49:45;99464.03;;;8.95;100.00
59170;BME280;52474;52.236;5.114;2023-04-01T05:52:10;99471.13;;;8.95;100.00
59170;BME280;52474;52.236;5.114;2023-04-01T05:54:36;99457.19;;;8.85;100.00
59170;BME280;52474;52.236;5.114;2023-04-01T05:57:02;99465.34;;;8.91;100.00
59170;BME280;52474;52.236;5.114;2023-04-01T05:59:28;99423.19;;;8.64;100.00
59170;BME280;52474;52.236;5.114;2023-04-01T06:01:57;99445.59;;;8.77;100.00
59170;BME280;52474;52.236;5.114;2023-04-01T06:04:23;99484.19;;;8.96;100.00
59170;BME280;52474;52.236;5.114;2023-04-01T06:06:49;99444.09;;;8.75;100.00
59170;BME280;52474;52.236;5.114;2023-04-01T06:09:23;99485.50;;;9.00;100.00
59170;BME280;52474;52.236;5.114;2023-04-01T06:20:43;99510.28;;;8.99;100.00
59170;BME280;52474;52.236;5.114;2023-04-01T06:35:17;99527.28;;;9.23;100.00
59170;BME280;52474;52.236;5.114;2023-04-01T06:46:31;99548.56;;;9.21;100.00
59170;BME280;52474;52.236;5.114;2023-04-01T06:55:44;99562.44;;;9.23;100.00
59170;BME280;52474;52.236;5.114;2023-04-01T06:58:50;99561.63;;;9.23;100.00
59170;BME280;52474;52.236;5.114;2023-04-01T07:01:23;99572.38;;;9.30;100.00
59170;BME280;52474;52.236;5.114;2023-04-01T07:04:26;99578.63;;;9.46;100.00
59170;BME280;52474;52.236;5.114;2023-04-01T07:07:02;99540.78;;;9.20;100.00
59170;BME280;52474;52.236;5.114;2023-04-01T07:09:39;99589.41;;;9.53;100.00
59170;BME280;52474;52.236;5.114;2023-04-01T07:12:53;99591.47;;;9.41;100.00
59170;BME280;52474;52.236;5.114;2023-04-01T07:15:56;99599.75;;;9.46;100.00
59170;BME280;52474;52.236;5.114;2023-04-01T07:18:42;99615.31;;;9.50;100.00
59170;BME280;52474;52.236;5.114;2023-04-01T07:23:54;99604.22;;;9.46;100.00
59170;BME280;52474;52.236;5.114;2023-04-01T07:26:41;99602.19;;;9.40;100.00
59170;BME280;52474;52.236;5.114;2023-04-01T07:29:14;99569.56;;;9.23;100.00
59170;BME280;52474;52.236;5.114;2023-04-01T07:37:14;99635.44;;;9.68;100.00
59170;BME280;52474;52.236;5.114;2023-04-01T07:45:27;99649.34;;;9.71;100.00
59170;BME280;52474;52.236;5.114;2023-04-01T07:50:50;99646.50;;;9.90;100.00
59170;BME280;52474;52.236;5.114;2023-04-01T07:56:30;99663.00;;;10.18;100.00
59170;BME280;52474;52.236;5.114;2023-04-01T07:59:17;99672.78;;;10.26;100.00
59170;BME280;52474;52.236;5.114;2023-04-01T08:07:13;99681.38;;;9.94;100.00
59170;BME280;52474;52.236;5.114;2023-04-01T08:17:02;99707.63;;;9.87;100.00
59170;BME280;52474;52.236;5.114;2023-04-01T08:25:34;99665.56;;;9.76;100.00
59170;BME280;52474;52.236;5.114;2023-04-01T08:28:11;99714.38;;;10.07;100.00
59170;BME280;52474;52.236;5.114;2023-04-01T08:30:43;99708.66;;;10.20;100.00
59170;BME280;52474;52.236;5.114;2023-04-01T08:33:21;99722.38;;;10.42;100.00
59170;BME280;52474;52.236;5.114;2023-04-01T08:47:16;99715.53;;;10.31;100.00
59170;BME280;52474;52.236;5.114;2023-04-01T08:52:35;99738.16;;;10.51;100.00
59170;BME280;52474;52.236;5.114;2023-04-01T08:55:25;99749.81;;;10.67;100.00
59170;BME280;52474;52.236;5.114;2023-04-01T09:09:28;99750.16;;;10.20;100.00
59170;BME280;52474;52.236;5.114;2023-04-01T09:28:01;99746.66;;;10.63;100.00
59170;BME280;52474;52.236;5.114;2023-04-01T09:36:03;99795.41;;;10.87;100.00
59170;BME280;52474;52.236;5.114;2023-04-01T09:41:42;99766.16;;;10.62;100.00
59170;BME280;52474;52.236;5.114;2023-04-01T09:44:47;99791.84;;;10.70;100.00
59170;BME280;52474;52.236;5.114;2023-04-01T09:47:34;99820.47;;;10.66;100.00
59170;BME280;52474;52.236;5.114;2023-04-01T09:50:21;99823.03;;;10.84;100.00
59170;BME280;52474;52.236;5.114;2023-04-01T10:05:50;99835.13;;;11.13;100.00
59170;BME280;52474;52.236;5.114;2023-04-01T10:17:41;99837.59;;;11.73;100.00
59170;BME280;52474;52.236;5.114;2023-04-01T10:20:39;99842.31;;;12.29;100.00
59170;BME280;52474;52.236;5.114;2023-04-01T10:34:33;99846.75;;;13.17;100.00
59170;BME280;52474;52.236;5.114;2023-04-01T11:08:20;99881.63;;;12.41;100.00
59170;BME280;52474;52.236;5.114;2023-04-01T11:44:39;99922.59;;;11.64;100.00
59170;BME280;52474;52.236;5.114;2023-04-01T11:53:16;99910.91;;;11.82;100.00
59170;BME280;52474;52.236;5.114;2023-04-01T11:58:24;99946.00;;;12.19;100.00
59170;BME280;52474;52.236;5.114;2023-04-01T12:12:40;99962.22;;;11.91;100.00
59170;BME280;52474;52.236;5.114;2023-04-01T12:15:28;99960.41;;;12.00;100.00
59170;BME280;52474;52.236;5.114;2023-04-01T12:20:58;99972.41;;;11.78;100.00
59170;BME280;52474;52.236;5.114;2023-04-01T12:40:24;100004.00;;;11.97;100.00
59170;BME280;52474;52.236;5.114;2023-04-01T12:45:57;100015.25;;;12.99;100.00
59170;BME280;52474;52.236;5.114;2023-04-01T12:57:08;100003.78;;;14.50;100.00
59170;BME280;52474;52.236;5.114;2023-04-01T13:08:27;100018.16;;;12.06;100.00
59170;BME280;52474;52.236;5.114;2023-04-01T13:11:08;100034.75;;;11.82;100.00
59170;BME280;52474;52.236;5.114;2023-04-01T13:14:04;100046.53;;;11.53;100.00
59170;BME280;52474;52.236;5.114;2023-04-01T13:22:17;100062.34;;;11.37;100.00
59170;BME280;52474;52.236;5.114;2023-04-01T13:32:49;100042.44;;;10.71;100.00
59170;BME280;52474;52.236;5.114;2023-04-01T13:41:11;100096.88;;;10.83;100.00
59170;BME280;52474;52.236;5.114;2023-04-01T13:43:49;100096.63;;;10.59;100.00
59170;BME280;52474;52.236;5.114;2023-04-01T14:00:37;100122.50;;;10.37;100.00
59170;BME280;52474;52.236;5.114;2023-04-01T14:11:13;100106.56;;;10.19;100.00
59170;BME280;52474;52.236;5.114;2023-04-01T14:13:55;100135.56;;;10.48;100.00
59170;BME280;52474;52.236;5.114;2023-04-01T14:30:30;100125.03;;;10.39;100.00
59170;BME280;52474;52.236;5.114;2023-04-01T14:38:52;100173.94;;;10.35;100.00
59170;BME280;52474;52.236;5.114;2023-04-01T14:49:47;100194.53;;;10.31;100.00
59170;BME280;52474;52.236;5.114;2023-04-01T14:52:32;100195.25;;;10.23;100.00
59170;BME280;52474;52.236;5.114;2023-04-01T14:55:18;100194.16;;;10.16;100.00
59170;BME280;52474;52.236;5.114;2023-04-01T14:58:12;100201.41;;;10.14;100.00
59170;BME280;52474;52.236;5.114;2023-04-01T15:00:54;100220.06;;;10.13;100.00
59170;BME280;52474;52.236;5.114;2023-04-01T15:14:37;100239.31;;;10.05;100.00
59170;BME280;52474;52.236;5.114;2023-04-01T15:32:05;100256.88;;;9.86;100.00
59170;BME280;52474;52.236;5.114;2023-04-01T15:40:27;100282.78;;;9.73;100.00
59170;BME280;52474;52.236;5.114;2023-04-01T15:43:41;100292.50;;;9.63;100.00
59170;BME280;52474;52.236;5.114;2023-04-01T15:51:43;100308.22;;;9.64;100.00
59170;BME280;52474;52.236;5.114;2023-04-01T15:54:23;100313.66;;;9.63;100.00
59170;BME280;52474;52.236;5.114;2023-04-01T16:02:18;100339.13;;;9.64;100.00
59170;BME280;52474;52.236;5.114;2023-04-01T16:07:38;100336.75;;;9.51;100.00
59170;BME280;52474;52.236;5.114;2023-04-01T16:16:24;100361.53;;;9.60;100.00
59170;BME280;52474;52.236;5.114;2023-04-01T16:19:13;100365.13;;;9.59;100.00
59170;BME280;52474;52.236;5.114;2023-04-01T16:21:50;100367.78;;;9.59;100.00
59170;BME280;52474;52.236;5.114;2023-04-01T16:24:38;100380.44;;;9.55;100.00
59170;BME280;52474;52.236;5.114;2023-04-01T16:29:46;100348.94;;;9.23;100.00
59170;BME280;52474;52.236;5.114;2023-04-01T16:32:29;100346.81;;;9.17;100.00
59170;BME280;52474;52.236;5.114;2023-04-01T16:35:20;100386.66;;;9.44;100.00
59170;BME280;52474;52.236;5.114;2023-04-01T16:38:08;100349.06;;;9.21;100.00
59170;BME280;52474;52.236;5.114;2023-04-01T16:43:46;100376.03;;;9.25;100.00
59170;BME280;52474;52.236;5.114;2023-04-01T16:57:01;100444.84;;;9.14;100.00
59170;BME280;52474;52.236;5.114;2023-04-01T16:59:43;100450.72;;;8.96;100.00
59170;BME280;52474;52.236;5.114;2023-04-01T17:02:17;100452.75;;;8.93;100.00
59170;BME280;52474;52.236;5.114;2023-04-01T17:05:11;100467.66;;;8.94;100.00
59170;BME280;52474;52.236;5.114;2023-04-01T17:16:01;100466.81;;;8.72;100.00
59170;BME280;52474;52.236;5.114;2023-04-01T17:19:04;100499.03;;;8.87;100.00
59170;BME280;52474;52.236;5.114;2023-04-01T17:28:10;100518.91;;;8.70;100.00
59170;BME280;52474;52.236;5.114;2023-04-01T17:36:16;100539.22;;;8.58;100.00
59170;BME280;52474;52.236;5.114;2023-04-01T17:41:55;100547.50;;;8.65;100.00
59170;BME280;52474;52.236;5.114;2023-04-01T17:47:39;100566.16;;;8.41;100.00
59170;BME280;52474;52.236;5.114;2023-04-01T17:50:47;100577.69;;;8.40;100.00
59170;BME280;52474;52.236;5.114;2023-04-01T17:56:08;100586.44;;;8.41;100.00
59170;BME280;52474;52.236;5.114;2023-04-01T17:58:59;100592.53;;;8.41;100.00
59170;BME280;52474;52.236;5.114;2023-04-01T18:04:23;100608.00;;;8.34;100.00
59170;BME280;52474;52.236;5.114;2023-04-01T18:20:34;100612.69;;;7.97;100.00
59170;BME280;52474;52.236;5.114;2023-04-01T18:23:12;100623.59;;;7.92;100.00
59170;BME280;52474;52.236;5.114;2023-04-01T18:25:43;100648.44;;;8.12;100.00
59170;BME280;52474;52.236;5.114;2023-04-01T18:28:36;100645.53;;;8.04;100.00
59170;BME280;52474;52.236;5.114;2023-04-01T18:31:08;100675.16;;;8.19;100.00
59170;BME280;52474;52.236;5.114;2023-04-01T18:39:00;100690.75;;;8.11;100.00
59170;BME280;52474;52.236;5.114;2023-04-01T18:44:36;100714.47;;;8.00;100.00
59170;BME280;52474;52.236;5.114;2023-04-01T18:53:10;100722.34;;;7.77;100.00
59170;BME280;52474;52.236;5.114;2023-04-01T18:55:46;100687.19;;;7.54;100.00
59170;BME280;52474;52.236;5.114;2023-04-01T18:58:35;100733.22;;;7.72;100.00
59170;BME280;52474;52.236;5.114;2023-04-01T19:01:24;100746.41;;;7.72;100.00
59170;BME280;52474;52.236;5.114;2023-04-01T19:03:55;100760.88;;;7.67;100.00
59170;BME280;52474;52.236;5.114;2023-04-01T19:08:52;100773.13;;;7.68;100.00
59170;BME280;52474;52.236;5.114;2023-04-01T19:15:09;100787.59;;;7.62;100.00
59170;BME280;52474;52.236;5.114;2023-04-01T19:17:51;100746.72;;;7.32;100.00
59170;BME280;52474;52.236;5.114;2023-04-01T19:20:42;100795.72;;;7.59;100.00
59170;BME280;52474;52.236;5.114;2023-04-01T19:43:26;100838.19;;;7.43;100.00
59170;BME280;52474;52.236;5.114;2023-04-01T19:54:02;100858.72;;;7.38;100.00
59170;BME280;52474;52.236;5.114;2023-04-01T19:57:04;100873.69;;;7.38;100.00
59170;BME280;52474;52.236;5.114;2023-04-01T20:04:44;100896.78;;;7.34;100.00
59170;BME280;52474;52.236;5.114;2023-04-01T20:07:51;100906.81;;;7.29;100.00
59170;BME280;52474;52.236;5.114;2023-04-01T20:10:19;100861.69;;;6.97;100.00
59170;BME280;52474;52.236;5.114;2023-04-01T20:13:09;100834.31;;;6.61;100.00
59170;BME280;52474;52.236;5.114;2023-04-01T20:15:47;100918.53;;;7.12;100.00
59170;BME280;52474;52.236;5.114;2023-04-01T20:18:32;100915.06;;;7.12;100.00
59170;BME280;52474;52.236;5.114;2023-04-01T20:26:41;100934.44;;;6.98;100.00
59170;BME280;52474;52.236;5.114;2023-04-01T20:32:23;100957.09;;;7.00;100.00
59170;BME280;52474;52.236;5.114;2023-04-01T20:46:22;100999.28;;;6.86;100.00
59170;BME280;52474;52.236;5.114;2023-04-01T20:49:06;101007.31;;;6.84;100.00
59170;BME280;52474;52.236;5.114;2023-04-01T20:51:39;101007.81;;;6.77;100.00
59170;BME280;52474;52.236;5.114;2023-04-01T20:54:46;101009.06;;;6.71;100.00
59170;BME280;52474;52.236;5.114;2023-04-01T21:14:24;101008.22;;;6.31;100.00
59170;BME280;52474;52.236;5.114;2023-04-01T21:19:41;101056.66;;;6.41;100.00
59170;BME280;52474;52.236;5.114;2023-04-01T21:31:05;101083.91;;;6.40;100.00
59170;BME280;52474;52.236;5.114;2023-04-01T21:36:27;101095.03;;;6.31;100.00
59170;BME280;52474;52.236;5.114;2023-04-01T21:42:16;101102.63;;;6.35;100.00
59170;BME280;52474;52.236;5.114;2023-04-01T21:44:59;101112.69;;;6.29;100.00
59170;BME280;52474;52.236;5.114;2023-04-01T21:47:45;101121.69;;;6.24;100.00
59170;BME280;52474;52.236;5.114;2023-04-01T21:56:16;101108.75;;;6.07;100.00
59170;BME280;52474;52.236;5.114;2023-04-01T22:07:21;101146.59;;;6.19;100.00
59170;BME280;52474;52.236;5.114;2023-04-01T22:15:40;101122.34;;;5.85;100.00
59170;BME280;52474;52.236;5.114;2023-04-01T22:18:34;101177.69;;;6.12;100.00
59170;BME280;52474;52.236;5.114;2023-04-01T22:21:32;101176.75;;;5.99;100.00
59170;BME280;52474;52.236;5.114;2023-04-01T22:26:45;101188.31;;;6.11;100.00
59170;BME280;52474;52.236;5.114;2023-04-01T22:29:35;101185.28;;;6.02;100.00
59170;BME280;52474;52.236;5.114;2023-04-01T22:32:08;101188.31;;;5.96;100.00
59170;BME280;52474;52.236;5.114;2023-04-01T22:40:40;101203.81;;;6.01;100.00
59170;BME280;52474;52.236;5.114;2023-04-01T22:43:13;101213.88;;;5.93;100.00
59170;BME280;52474;52.236;5.114;2023-04-01T22:48:31;101195.66;;;5.75;100.00
59170;BME280;52474;52.236;5.114;2023-04-01T22:51:19;101234.19;;;5.91;100.00
59170;BME280;52474;52.236;5.114;2023-04-01T22:53:51;101237.53;;;5.93;100.00
59170;BME280;52474;52.236;5.114;2023-04-01T22:56:22;101218.66;;;5.72;100.00
59170;BME280;52474;52.236;5.114;2023-04-01T22:58:56;101217.69;;;5.73;100.00
59170;BME280;52474;52.236;5.114;2023-04-01T23:01:30;101238.84;;;5.86;100.00
59170;BME280;52474;52.236;5.114;2023-04-01T23:03:58;101179.06;;;5.45;100.00
59170;BME280;52474;52.236;5.114;2023-04-01T23:06:35;101255.63;;;5.83;100.00
59170;BME280;52474;52.236;5.114;2023-04-01T23:09:19;101235.53;;;5.68;100.00
59170;BME280;52474;52.236;5.114;2023-04-01T23:19:58;101277.38;;;5.71;100.00
59170;BME280;52474;52.236;5.114;2023-04-01T23:25:28;101285.94;;;5.74;100.00
59170;BME280;52474;52.236;5.114;2023-04-01T23:38:15;101306.28;;;5.71;100.00
59170;BME280;52474;52.236;5.114;2023-04-01T23:40:42;101313.25;;;5.72;100.00
59170;BME280;52474;52.236;5.114;2023-04-01T23:43:19;101282.44;;;5.59;100.00
59170;BME280;52474;52.236;5.114;2023-04-01T23:45:47;101323.84;;;5.70;100.00
59170;BME280;52474;52.236;5.114;2023-04-01T23:48:15;101316.97;;;5.68;100.00
59170;BME280;52474;52.236;5.114;2023-04-01T23:50:43;101324.34;;;5.61;100.00
59170;BME280;52474;52.236;5.114;2023-04-01T23:53:33;101329.63;;;5.61;100.00
59170;BME280;52474;52.236;5.114;2023-04-01T23:56:01;101329.63;;;5.61;100.00
59170;BME280;52474;52.236;5.114;2023-04-01T23:58:41;101336.66;;;5.60;100.00
